Time,TemperatureF,DewpointF,PressureIn,WindDirection,WindDirectionDegrees,WindSpeedMPH,WindSpeedGustMPH,Humidity,HourlyPrecipIn,Conditions,Clouds,dailyrainin,SoftwareType,DateUTC
2014-01-17 00:00:00,37.8,11.2,30.30,NNW,329,1.0,1.0,33,0.00,,,0.00,Wunderground v.1.15,2014-01-17 07:00:00,
2014-01-17 00:10:00,37.7,11.1,30.30,NNW,329,1.0,1.0,33,0.00,,,0.00,Wunderground v.1.15,2014-01-17 07:10:00,
2014-01-17 00:20:00,36.7,11.6,30.30,NNW,329,0.0,0.0,35,0.00,,,0.00,Wunderground v.1.15,2014-01-17 07:20:00,
2014-01-17 00:30:00,35.8,11.4,30.30,NNW,329,0.0,0.0,36,0.00,,,0.00,Wunderground v.1.15,2014-01-17 07:30:00,
2014-01-17 00:40:00,35.0,11.3,30.30,NNW,329,0.0,0.0,37,0.00,,,0.00,Wunderground v.1.15,2014-01-17 07:40:00,
2014-01-17 00:50:00,34.1,11.1,30.31,NNW,329,0.0,0.0,38,0.00,,,0.00,Wunderground v.1.15,2014-01-17 07:50:00,
2014-01-17 01:00:00,32.8,11.1,30.31,NNW,329,0.0,1.0,40,0.00,,,0.00,Wunderground v.1.15,2014-01-17 08:00:00,
2014-01-17 01:10:00,33.5,11.2,30.31,NNW,329,0.0,4.0,39,0.00,,,0.00,Wunderground v.1.15,2014-01-17 08:10:00,
2014-01-17 01:20:00,33.0,11.3,30.31,NNW,329,0.0,4.0,40,0.00,,,0.00,Wunderground v.1.15,2014-01-17 08:20:00,
2014-01-17 01:30:00,33.8,10.8,30.32,NNW,329,0.0,4.0,38,0.00,,,0.00,Wunderground v.1.15,2014-01-17 08:30:00,
2014-01-17 01:40:00,33.6,10.7,30.33,NNW,329,0.0,4.0,38,0.00,,,0.00,Wunderground v.1.15,2014-01-17 08:40:00,
2014-01-17 01:50:00,33.8,10.8,30.34,NNW,329,0.0,4.0,38,0.00,,,0.00,Wunderground v.1.15,2014-01-17 08:50:00,
2014-01-17 02:00:00,34.8,10.5,30.34,NNW,329,1.0,4.0,36,0.00,,,0.00,Wunderground v.1.15,2014-01-17 09:00:00,
2014-01-17 02:10:00,34.9,10.0,30.34,NNW,329,0.0,4.0,35,0.00,,,0.00,Wunderground v.1.15,2014-01-17 09:10:00,
2014-01-17 02:20:00,34.5,10.2,30.34,NNW,337,2.0,6.0,36,0.00,,,0.00,Wunderground v.1.15,2014-01-17 09:20:00,
2014-01-17 02:30:00,34.1,10.5,30.35,NNW,342,3.0,3.0,37,0.00,,,0.00,Wunderground v.1.15,2014-01-17 09:30:00,
2014-01-17 02:40:00,33.4,10.5,30.35,NNW,342,2.0,2.0,38,0.00,,,0.00,Wunderground v.1.15,2014-01-17 09:40:00,
2014-01-17 02:50:00,33.2,10.9,30.35,NNW,342,2.0,2.0,39,0.00,,,0.00,Wunderground v.1.15,2014-01-17 09:50:00,
2014-01-17 03:00:00,33.0,11.8,30.35,NNW,342,1.0,4.0,41,0.00,,,0.00,Wunderground v.1.15,2014-01-17 10:00:00,
2014-01-17 03:10:00,33.0,11.8,30.35,NNW,343,3.0,3.0,41,0.00,,,0.00,Wunderground v.1.15,2014-01-17 10:10:00,
2014-01-17 03:20:00,33.0,11.8,30.35,NNW,345,3.0,3.0,41,0.00,,,0.00,Wunderground v.1.15,2014-01-17 10:20:00,
2014-01-17 03:30:00,32.3,11.2,30.35,NNW,345,1.0,4.0,41,0.00,,,0.00,Wunderground v.1.15,2014-01-17 10:30:00,
2014-01-17 03:40:00,32.0,11.5,30.35,NNW,345,1.0,4.0,42,0.00,,,0.00,Wunderground v.1.15,2014-01-17 10:40:00,
2014-01-17 03:50:00,32.1,12.1,30.35,NNW,345,0.0,4.0,43,0.00,,,0.00,Wunderground v.1.15,2014-01-17 10:50:00,
2014-01-17 04:00:00,32.6,12.5,30.35,NNW,345,1.0,4.0,43,0.00,,,0.00,Wunderground v.1.15,2014-01-17 11:00:00,
2014-01-17 04:10:00,32.4,12.9,30.35,NNW,345,0.0,4.0,44,0.00,,,0.00,Wunderground v.1.15,2014-01-17 11:10:00,
2014-01-17 04:20:00,32.1,13.6,30.35,NNW,345,0.0,4.0,46,0.00,,,0.00,Wunderground v.1.15,2014-01-17 11:20:00,
2014-01-17 04:30:00,32.1,13.6,30.35,NNW,345,1.0,4.0,46,0.00,,,0.00,Wunderground v.1.15,2014-01-17 11:30:00,
2014-01-17 04:40:00,31.9,13.9,30.35,NNW,345,1.0,1.0,47,0.00,,,0.00,Wunderground v.1.15,2014-01-17 11:40:00,
2014-01-17 04:50:00,31.6,14.6,30.35,NNW,345,0.0,4.0,49,0.00,,,0.00,Wunderground v.1.15,2014-01-17 11:50:00,
2014-01-17 05:00:00,31.4,14.4,30.35,NNW,345,0.0,4.0,49,0.00,,,0.00,Wunderground v.1.15,2014-01-17 12:00:00,
2014-01-17 05:10:00,31.0,14.5,30.35,NNW,345,0.0,4.0,50,0.00,,,0.00,Wunderground v.1.15,2014-01-17 12:10:00,
2014-01-17 05:20:00,31.0,14.5,30.35,NNW,345,1.0,1.0,50,0.00,,,0.00,Wunderground v.1.15,2014-01-17 12:20:00,
2014-01-17 05:30:00,30.7,14.7,30.36,NNW,345,0.0,4.0,51,0.00,,,0.00,Wunderground v.1.15,2014-01-17 12:30:00,
2014-01-17 05:40:00,30.3,14.8,30.36,NNW,345,0.0,4.0,52,0.00,,,0.00,Wunderground v.1.15,2014-01-17 12:40:00,
2014-01-17 05:50:00,29.9,15.3,30.36,NNW,345,0.0,4.0,54,0.00,,,0.00,Wunderground v.1.15,2014-01-17 12:50:00,
2014-01-17 06:00:00,30.1,15.9,30.36,NNW,345,1.0,1.0,55,0.00,,,0.00,Wunderground v.1.15,2014-01-17 13:00:00,
2014-01-17 06:10:00,30.1,16.3,30.36,NNW,345,0.0,4.0,56,0.00,,,0.00,Wunderground v.1.15,2014-01-17 13:10:00,
2014-01-17 06:20:00,30.2,15.5,30.36,NNW,345,1.0,1.0,54,0.00,,,0.00,Wunderground v.1.15,2014-01-17 13:20:00,
2014-01-17 06:30:00,29.6,15.0,30.36,NNW,345,1.0,1.0,54,0.00,,,0.00,Wunderground v.1.15,2014-01-17 13:30:00,
2014-01-17 06:40:00,29.2,15.4,30.36,NNW,345,1.0,4.0,56,0.00,,,0.00,Wunderground v.1.15,2014-01-17 13:40:00,
2014-01-17 06:50:00,28.9,15.6,30.37,NNW,345,0.0,4.0,57,0.00,,,0.00,Wunderground v.1.15,2014-01-17 13:50:00,
2014-01-17 07:00:00,28.9,15.6,30.37,NNW,345,1.0,1.0,57,0.00,,,0.00,Wunderground v.1.15,2014-01-17 14:00:00,
2014-01-17 07:10:00,28.9,15.2,30.37,NNW,345,1.0,1.0,56,0.00,,,0.00,Wunderground v.1.15,2014-01-17 14:10:00,
2014-01-17 07:20:00,28.9,15.2,30.37,NNW,345,0.0,4.0,56,0.00,,,0.00,Wunderground v.1.15,2014-01-17 14:20:00,
2014-01-17 07:30:00,29.4,15.6,30.37,NNW,345,3.0,3.0,56,0.00,,,0.00,Wunderground v.1.15,2014-01-17 14:30:00,
2014-01-17 07:40:00,30.0,15.8,30.38,NNW,345,2.0,2.0,55,0.00,,,0.00,Wunderground v.1.15,2014-01-17 14:40:00,
2014-01-17 07:50:00,30.4,15.7,30.38,NNW,345,1.0,4.0,54,0.00,,,0.00,Wunderground v.1.15,2014-01-17 14:50:00,
2014-01-17 08:00:00,30.6,15.5,30.38,NNW,347,3.0,5.0,53,0.00,,,0.00,Wunderground v.1.15,2014-01-17 15:00:00,
2014-01-17 08:10:00,31.7,16.1,30.39,NNW,348,2.0,2.0,52,0.00,,,0.00,Wunderground v.1.15,2014-01-17 15:10:00,
2014-01-17 08:20:00,32.6,16.0,30.39,NNW,348,1.0,1.0,50,0.00,,,0.00,Wunderground v.1.15,2014-01-17 15:20:00,
2014-01-17 08:30:00,33.6,16.0,30.40,NNW,348,0.0,4.0,48,0.00,,,0.00,Wunderground v.1.15,2014-01-17 15:30:00,
2014-01-17 08:40:00,32.8,15.7,30.40,NNW,348,1.0,1.0,49,0.00,,,0.00,Wunderground v.1.15,2014-01-17 15:40:00,
2014-01-17 08:50:00,33.7,16.1,30.40,NNW,348,0.0,4.0,48,0.00,,,0.00,Wunderground v.1.15,2014-01-17 15:50:00,
2014-01-17 09:00:00,33.6,16.0,30.40,NNW,348,1.0,4.0,48,0.00,,,0.00,Wunderground v.1.15,2014-01-17 16:00:00,
2014-01-17 09:10:00,33.0,15.9,30.41,NNW,345,1.0,1.0,49,0.00,,,0.00,Wunderground v.1.15,2014-01-17 16:10:00,
2014-01-17 09:20:00,33.2,16.1,30.41,NNW,345,1.0,4.0,49,0.00,,,0.00,Wunderground v.1.15,2014-01-17 16:20:00,
2014-01-17 09:30:00,34.7,17.0,30.41,NNW,345,0.0,4.0,48,0.00,,,0.00,Wunderground v.1.15,2014-01-17 16:30:00,
2014-01-17 09:40:00,36.2,16.9,30.42,NNW,345,0.0,4.0,45,0.00,,,0.00,Wunderground v.1.15,2014-01-17 16:40:00,
2014-01-17 09:50:00,36.4,16.5,30.41,NNW,345,0.0,4.0,44,0.00,,,0.00,Wunderground v.1.15,2014-01-17 16:50:00,
2014-01-17 10:00:00,36.5,16.1,30.41,NNW,345,0.0,4.0,43,0.00,,,0.00,Wunderground v.1.15,2014-01-17 17:00:00,
2014-01-17 10:10:00,37.8,16.2,30.41,NNW,345,0.0,4.0,41,0.00,,,0.00,Wunderground v.1.15,2014-01-17 17:10:00,
2014-01-17 10:20:00,38.5,16.2,30.41,NNW,345,0.0,4.0,40,0.00,,,0.00,Wunderground v.1.15,2014-01-17 17:20:00,
2014-01-17 10:30:00,39.3,16.4,30.40,NNW,345,0.0,4.0,39,0.00,,,0.00,Wunderground v.1.15,2014-01-17 17:30:00,
2014-01-17 10:40:00,40.8,16.5,30.40,NNW,345,1.0,4.0,37,0.00,,,0.00,Wunderground v.1.15,2014-01-17 17:40:00,
2014-01-17 10:50:00,41.4,16.4,30.39,NNW,345,1.0,4.0,36,0.00,,,0.00,Wunderground v.1.15,2014-01-17 17:50:00,
2014-01-17 11:00:00,42.3,16.6,30.38,NNW,345,0.0,4.0,35,0.00,,,0.00,Wunderground v.1.15,2014-01-17 18:00:00,
2014-01-17 11:10:00,42.8,16.3,30.37,NNW,345,0.0,4.0,34,0.00,,,0.00,Wunderground v.1.15,2014-01-17 18:10:00,
2014-01-17 11:20:00,43.6,17.0,30.36,NNW,345,0.0,4.0,34,0.00,,,0.00,Wunderground v.1.15,2014-01-17 18:20:00,
2014-01-17 12:40:00,48.6,13.4,30.32,NNW,345,1.0,1.0,24,0.00,,,0.00,Wunderground v.1.15,2014-01-17 19:40:00,
2014-01-17 12:50:00,49.2,13.9,30.31,NNW,345,1.0,4.0,24,0.00,,,0.00,Wunderground v.1.15,2014-01-17 19:50:00,
2014-01-17 13:00:00,49.9,14.5,30.30,NNW,345,0.0,4.0,24,0.00,,,0.00,Wunderground v.1.15,2014-01-17 20:00:00,
2014-01-17 13:10:00,50.4,13.9,30.30,NNW,345,0.0,4.0,23,0.00,,,0.00,Wunderground v.1.15,2014-01-17 20:10:00,
2014-01-17 13:20:00,50.6,14.1,30.29,NNW,345,0.0,4.0,23,0.00,,,0.00,Wunderground v.1.15,2014-01-17 20:20:00,
2014-01-17 13:30:00,50.5,14.0,30.29,NNW,345,1.0,4.0,23,0.00,,,0.00,Wunderground v.1.15,2014-01-17 20:30:00,
2014-01-17 13:40:00,50.7,14.2,30.29,NNW,343,1.0,1.0,23,0.00,,,0.00,Wunderground v.1.15,2014-01-17 20:40:00,
2014-01-17 13:50:00,51.1,14.5,30.28,NNW,343,1.0,4.0,23,0.00,,,0.00,Wunderground v.1.15,2014-01-17 20:50:00,
2014-01-17 14:00:00,50.6,15.1,30.27,NNE,28,1.0,4.0,24,0.00,,,0.00,Wunderground v.1.15,2014-01-17 21:00:00,
2014-01-17 14:10:00,50.7,14.2,30.27,ENE,68,2.0,2.0,23,0.00,,,0.00,Wunderground v.1.15,2014-01-17 21:10:00,
2014-01-17 14:20:00,51.7,14.0,30.27,ENE,68,1.0,1.0,22,0.00,,,0.00,Wunderground v.1.15,2014-01-17 21:20:00,
2014-01-17 14:30:00,51.8,14.1,30.27,East,89,2.0,6.0,22,0.00,,,0.00,Wunderground v.1.15,2014-01-17 21:30:00,
2014-01-17 14:40:00,52.5,14.7,30.27,SE,125,2.0,4.0,22,0.00,,,0.00,Wunderground v.1.15,2014-01-17 21:40:00,
2014-01-17 14:50:00,52.9,14.0,30.27,SE,126,1.0,4.0,21,0.00,,,0.00,Wunderground v.1.15,2014-01-17 21:50:00,
2014-01-17 15:00:00,53.2,14.2,30.26,SE,126,1.0,1.0,21,0.00,,,0.00,Wunderground v.1.15,2014-01-17 22:00:00,
2014-01-17 15:10:00,54.2,13.9,30.26,SE,126,0.0,4.0,20,0.00,,,0.00,Wunderground v.1.15,2014-01-17 22:10:00,
2014-01-17 15:20:00,52.5,13.6,30.25,SE,126,2.0,6.0,21,0.00,,,0.00,Wunderground v.1.15,2014-01-17 22:20:00,
2014-01-17 15:30:00,52.6,13.7,30.25,SE,127,3.0,4.0,21,0.00,,,0.00,Wunderground v.1.15,2014-01-17 22:30:00,
2014-01-17 15:40:00,53.0,14.0,30.25,SE,132,3.0,3.0,21,0.00,,,0.00,Wunderground v.1.15,2014-01-17 22:40:00,
2014-01-17 15:50:00,53.6,13.4,30.25,SE,132,1.0,4.0,20,0.00,,,0.00,Wunderground v.1.15,2014-01-17 22:50:00,
2014-01-17 16:00:00,53.9,13.7,30.25,SE,132,1.0,4.0,20,0.00,,,0.00,Wunderground v.1.15,2014-01-17 23:00:00,
2014-01-17 16:10:00,53.9,13.7,30.25,SE,132,1.0,4.0,20,0.00,,,0.00,Wunderground v.1.15,2014-01-17 23:10:00,
2014-01-17 16:20:00,53.2,14.2,30.25,SE,132,2.0,2.0,21,0.00,,,0.00,Wunderground v.1.15,2014-01-17 23:20:00,
2014-01-17 16:30:00,53.3,13.2,30.25,SE,132,1.0,4.0,20,0.00,,,0.00,Wunderground v.1.15,2014-01-17 23:30:00,
2014-01-17 16:40:00,53.0,14.0,30.25,SE,132,2.0,4.0,21,0.00,,,0.00,Wunderground v.1.15,2014-01-17 23:40:00,
2014-01-17 16:50:00,52.9,14.0,30.25,SE,132,2.0,4.0,21,0.00,,,0.00,Wunderground v.1.15,2014-01-17 23:50:00,
2014-01-17 17:00:00,52.6,13.7,30.26,SE,132,2.0,4.0,21,0.00,,,0.00,Wunderground v.1.15,2014-01-18 00:00:00,
2014-01-17 17:10:00,52.1,14.4,30.26,SE,132,1.0,1.0,22,0.00,,,0.00,Wunderground v.1.15,2014-01-18 00:10:00,
2014-01-17 17:20:00,51.7,14.0,30.25,SE,132,1.0,4.0,22,0.00,,,0.00,Wunderground v.1.15,2014-01-18 00:20:00,
2014-01-17 17:30:00,50.9,14.4,30.25,SE,132,1.0,4.0,23,0.00,,,0.00,Wunderground v.1.15,2014-01-18 00:30:00,
2014-01-17 17:40:00,50.4,13.9,30.26,SE,132,2.0,4.0,23,0.00,,,0.00,Wunderground v.1.15,2014-01-18 00:40:00,
2014-01-17 17:50:00,49.9,14.5,30.26,SE,132,1.0,1.0,24,0.00,,,0.00,Wunderground v.1.15,2014-01-18 00:50:00,
2014-01-17 18:00:00,49.3,14.9,30.26,SE,132,0.0,4.0,25,0.00,,,0.00,Wunderground v.1.15,2014-01-18 01:00:00,
2014-01-17 18:10:00,48.7,14.4,30.27,SE,132,0.0,4.0,25,0.00,,,0.00,Wunderground v.1.15,2014-01-18 01:10:00,
2014-01-17 18:20:00,48.3,15.0,30.27,SE,132,0.0,4.0,26,0.00,,,0.00,Wunderground v.1.15,2014-01-18 01:20:00,
2014-01-17 18:30:00,47.6,14.3,30.27,SE,132,0.0,4.0,26,0.00,,,0.00,Wunderground v.1.15,2014-01-18 01:30:00,
2014-01-17 18:40:00,47.1,14.8,30.27,SE,132,0.0,4.0,27,0.00,,,0.00,Wunderground v.1.15,2014-01-18 01:40:00,
2014-01-17 18:50:00,46.4,15.0,30.27,SE,132,0.0,4.0,28,0.00,,,0.00,Wunderground v.1.15,2014-01-18 01:50:00,
2014-01-17 19:00:00,44.9,14.5,30.27,SE,132,0.0,4.0,29,0.00,,,0.00,Wunderground v.1.15,2014-01-18 02:00:00,
2014-01-17 19:10:00,44.0,15.3,30.27,SE,132,0.0,4.0,31,0.00,,,0.00,Wunderground v.1.15,2014-01-18 02:10:00,
2014-01-17 19:20:00,43.5,14.8,30.27,SE,132,0.0,4.0,31,0.00,,,0.00,Wunderground v.1.15,2014-01-18 02:20:00,
2014-01-17 19:30:00,43.0,15.1,30.27,SE,132,0.0,4.0,32,0.00,,,0.00,Wunderground v.1.15,2014-01-18 02:30:00,
2014-01-17 19:40:00,42.3,15.2,30.27,SE,132,0.0,4.0,33,0.00,,,0.00,Wunderground v.1.15,2014-01-18 02:40:00,
2014-01-17 19:50:00,41.4,15.1,30.27,SE,132,0.0,4.0,34,0.00,,,0.00,Wunderground v.1.15,2014-01-18 02:50:00,
2014-01-17 20:00:00,40.8,15.9,30.27,SE,132,0.0,4.0,36,0.00,,,0.00,Wunderground v.1.15,2014-01-18 03:00:00,
2014-01-17 20:10:00,40.2,15.3,30.27,SE,132,0.0,4.0,36,0.00,,,0.00,Wunderground v.1.15,2014-01-18 03:10:00,
2014-01-17 20:20:00,40.2,15.3,30.27,SE,132,0.0,4.0,36,0.00,,,0.00,Wunderground v.1.15,2014-01-18 03:20:00,
2014-01-17 20:30:00,40.0,15.2,30.27,SE,132,0.0,4.0,36,0.00,,,0.00,Wunderground v.1.15,2014-01-18 03:30:00,
2014-01-17 20:40:00,40.1,15.2,30.27,SE,132,0.0,4.0,36,0.00,,,0.00,Wunderground v.1.15,2014-01-18 03:40:00,
2014-01-17 20:50:00,39.8,15.6,30.27,SE,132,0.0,4.0,37,0.00,,,0.00,Wunderground v.1.15,2014-01-18 03:50:00,
2014-01-17 21:00:00,39.3,15.2,30.28,SE,132,0.0,4.0,37,0.00,,,0.00,Wunderground v.1.15,2014-01-18 04:00:00,
2014-01-17 21:10:00,38.9,15.4,30.28,SE,132,0.0,4.0,38,0.00,,,0.00,Wunderground v.1.15,2014-01-18 04:10:00,
2014-01-17 21:20:00,38.4,15.6,30.28,SE,132,0.0,4.0,39,0.00,,,0.00,Wunderground v.1.15,2014-01-18 04:20:00,
2014-01-17 21:30:00,37.4,15.8,30.28,SE,132,0.0,4.0,41,0.00,,,0.00,Wunderground v.1.15,2014-01-18 04:30:00,
2014-01-17 21:40:00,36.7,15.7,30.28,SE,132,0.0,4.0,42,0.00,,,0.00,Wunderground v.1.15,2014-01-18 04:40:00,
2014-01-17 21:50:00,36.3,15.4,30.28,SE,132,0.0,4.0,42,0.00,,,0.00,Wunderground v.1.15,2014-01-18 04:50:00,
2014-01-17 22:00:00,36.1,15.7,30.28,SE,132,0.0,4.0,43,0.00,,,0.00,Wunderground v.1.15,2014-01-18 05:00:00,
2014-01-17 22:10:00,35.5,15.7,30.28,SE,132,0.0,4.0,44,0.00,,,0.00,Wunderground v.1.15,2014-01-18 05:10:00,
2014-01-17 22:20:00,35.5,15.7,30.29,SE,132,0.0,4.0,44,0.00,,,0.00,Wunderground v.1.15,2014-01-18 05:20:00,
2014-01-17 22:30:00,35.3,15.5,30.29,SE,132,0.0,4.0,44,0.00,,,0.00,Wunderground v.1.15,2014-01-18 05:30:00,
2014-01-17 22:40:00,34.6,15.4,30.29,SE,132,0.0,4.0,45,0.00,,,0.00,Wunderground v.1.15,2014-01-18 05:40:00,
2014-01-17 22:50:00,34.3,16.6,30.29,SE,132,0.0,4.0,48,0.00,,,0.00,Wunderground v.1.15,2014-01-18 05:50:00,
2014-01-17 23:00:00,34.3,15.6,30.29,SE,132,0.0,4.0,46,0.00,,,0.00,Wunderground v.1.15,2014-01-18 06:00:00,
2014-01-17 23:10:00,33.8,16.2,30.29,SE,132,0.0,4.0,48,0.00,,,0.00,Wunderground v.1.15,2014-01-18 06:10:00,
2014-01-17 23:20:00,33.9,16.3,30.29,SE,132,0.0,4.0,48,0.00,,,0.00,Wunderground v.1.15,2014-01-18 06:20:00,
2014-01-17 23:30:00,34.3,16.1,30.29,SE,132,0.0,4.0,47,0.00,,,0.00,Wunderground v.1.15,2014-01-18 06:30:00,
2014-01-17 23:40:00,34.8,16.6,30.30,SE,132,0.0,4.0,47,0.00,,,0.00,Wunderground v.1.15,2014-01-18 06:40:00,
2014-01-17 23:50:00,34.4,16.2,30.30,SE,132,0.0,4.0,47,0.00,,,0.00,Wunderground v.1.15,2014-01-18 06:50:00,